sensor_id;sensor_type;location;lat;lon;timestamp;temperature;humidity
2935;DHT22;2462;51.456;7.248;2022-10-16T00:00:57;14.70;99.90
2935;DHT22;2462;51.456;7.248;2022-10-16T00:03:23;17.10;99.90
2935;DHT22;2462;51.456;7.248;2022-10-16T00:05:48;14.80;99.90
2935;DHT22;2462;51.456;7.248;2022-10-16T00:08:14;15.00;99.90
2935;DHT22;2462;51.456;7.248;2022-10-16T00:10:40;14.70;99.90
2935;DHT22;2462;51.456;7.248;2022-10-16T00:13:06;14.70;99.90
2935;DHT22;2462;51.456;7.248;2022-10-16T00:15:38;14.70;99.90
2935;DHT22;2462;51.456;7.248;2022-10-16T00:18:04;14.70;99.90
2935;DHT22;2462;51.456;7.248;2022-10-16T00:20:30;14.70;99.90
2935;DHT22;2462;51.456;7.248;2022-10-16T00:22:58;14.70;99.90
2935;DHT22;2462;51.456;7.248;2022-10-16T00:25:24;14.70;99.90
2935;DHT22;2462;51.456;7.248;2022-10-16T00:27:49;14.70;99.90
2935;DHT22;2462;51.456;7.248;2022-10-16T00:30:15;14.70;99.90
2935;DHT22;2462;51.456;7.248;2022-10-16T00:32:41;14.70;99.90
2935;DHT22;2462;51.456;7.248;2022-10-16T00:35:06;14.70;99.90
2935;DHT22;2462;51.456;7.248;2022-10-16T00:37:32;14.70;99.90
2935;DHT22;2462;51.456;7.248;2022-10-16T00:39:57;14.70;99.90
2935;DHT22;2462;51.456;7.248;2022-10-16T00:42:23;15.40;99.90
2935;DHT22;2462;51.456;7.248;2022-10-16T00:44:51;14.70;99.90
2935;DHT22;2462;51.456;7.248;2022-10-16T00:47:39;15.10;99.90
2935;DHT22;2462;51.456;7.248;2022-10-16T00:50:33;14.70;99.90
2935;DHT22;2462;51.456;7.248;2022-10-16T00:53:00;14.60;99.90
2935;DHT22;2462;51.456;7.248;2022-10-16T00:55:27;14.60;99.90
2935;DHT22;2462;51.456;7.248;2022-10-16T00:57:55;14.60;99.90
2935;DHT22;2462;51.456;7.248;2022-10-16T01:00:23;14.60;99.90
2935;DHT22;2462;51.456;7.248;2022-10-16T01:02:58;14.60;99.90
2935;DHT22;2462;51.456;7.248;2022-10-16T01:05:38;14.60;99.90
2935;DHT22;2462;51.456;7.248;2022-10-16T01:08:25;14.60;99.90
2935;DHT22;2462;51.456;7.248;2022-10-16T01:11:07;14.60;99.90
2935;DHT22;2462;51.456;7.248;2022-10-16T01:13:50;14.60;99.90
2935;DHT22;2462;51.456;7.248;2022-10-16T01:16:34;15.10;99.90
2935;DHT22;2462;51.456;7.248;2022-10-16T01:19:17;14.60;99.90
2935;DHT22;2462;51.456;7.248;2022-10-16T01:21:46;14.60;99.90
2935;DHT22;2462;51.456;7.248;2022-10-16T01:24:33;14.60;99.90
2935;DHT22;2462;51.456;7.248;2022-10-16T01:32:20;14.50;99.90
2935;DHT22;2462;51.456;7.248;2022-10-16T01:34:53;14.50;99.90
2935;DHT22;2462;51.456;7.248;2022-10-16T01:37:30;14.50;99.90
2935;DHT22;2462;51.456;7.248;2022-10-16T01:39:59;15.50;99.90
2935;DHT22;2462;51.456;7.248;2022-10-16T01:42:30;14.50;99.90
2935;DHT22;2462;51.456;7.248;2022-10-16T01:44:59;14.50;99.90
2935;DHT22;2462;51.456;7.248;2022-10-16T01:47:31;14.50;99.90
2935;DHT22;2462;51.456;7.248;2022-10-16T01:49:59;15.30;99.90
2935;DHT22;2462;51.456;7.248;2022-10-16T01:52:26;14.50;99.90
2935;DHT22;2462;51.456;7.248;2022-10-16T01:54:55;14.50;99.90
2935;DHT22;2462;51.456;7.248;2022-10-16T01:57:23;14.40;99.90
2935;DHT22;2462;51.456;7.248;2022-10-16T01:59:53;14.50;99.90
2935;DHT22;2462;51.456;7.248;2022-10-16T02:02:20;14.50;99.90
2935;DHT22;2462;51.456;7.248;2022-10-16T02:04:53;14.40;99.90
2935;DHT22;2462;51.456;7.248;2022-10-16T02:07:20;14.40;99.90
2935;DHT22;2462;51.456;7.248;2022-10-16T02:09:46;14.40;99.90
2935;DHT22;2462;51.456;7.248;2022-10-16T02:12:23;14.40;99.90
2935;DHT22;2462;51.456;7.248;2022-10-16T02:14:53;14.40;99.90
2935;DHT22;2462;51.456;7.248;2022-10-16T02:17:20;14.40;99.90
2935;DHT22;2462;51.456;7.248;2022-10-16T02:19:48;14.40;99.90
2935;DHT22;2462;51.456;7.248;2022-10-16T02:22:23;14.40;99.90
2935;DHT22;2462;51.456;7.248;2022-10-16T02:27:54;14.40;99.90
2935;DHT22;2462;51.456;7.248;2022-10-16T02:30:42;14.40;99.90
2935;DHT22;2462;51.456;7.248;2022-10-16T02:33:10;14.40;99.90
2935;DHT22;2462;51.456;7.248;2022-10-16T02:35:39;14.40;99.90
2935;DHT22;2462;51.456;7.248;2022-10-16T02:38:05;14.40;99.90
2935;DHT22;2462;51.456;7.248;2022-10-16T02:40:31;14.40;99.90
2935;DHT22;2462;51.456;7.248;2022-10-16T02:42:57;14.40;99.90
2935;DHT22;2462;51.456;7.248;2022-10-16T02:45:23;14.40;99.90
2935;DHT22;2462;51.456;7.248;2022-10-16T02:47:48;14.40;99.90
2935;DHT22;2462;51.456;7.248;2022-10-16T02:50:14;14.40;99.90
2935;DHT22;2462;51.456;7.248;2022-10-16T02:52:40;14.40;99.90
2935;DHT22;2462;51.456;7.248;2022-10-16T02:55:06;14.40;99.90
2935;DHT22;2462;51.456;7.248;2022-10-16T02:57:32;14.40;99.90
2935;DHT22;2462;51.456;7.248;2022-10-16T02:59:58;14.40;99.90
2935;DHT22;2462;51.456;7.248;2022-10-16T03:02:24;14.40;99.90
2935;DHT22;2462;51.456;7.248;2022-10-16T03:04:50;14.40;99.90
2935;DHT22;2462;51.456;7.248;2022-10-16T03:07:15;14.00;99.90
2935;DHT22;2462;51.456;7.248;2022-10-16T03:09:41;14.50;99.90
2935;DHT22;2462;51.456;7.248;2022-10-16T03:12:06;14.40;99.90
2935;DHT22;2462;51.456;7.248;2022-10-16T03:14:32;14.40;99.90
2935;DHT22;2462;51.456;7.248;2022-10-16T03:16:58;14.40;99.90
2935;DHT22;2462;51.456;7.248;2022-10-16T03:19:23;14.40;99.90
2935;DHT22;2462;51.456;7.248;2022-10-16T03:21:49;14.40;99.90
2935;DHT22;2462;51.456;7.248;2022-10-16T03:24:15;14.40;99.90
2935;DHT22;2462;51.456;7.248;2022-10-16T03:26:40;14.30;99.90
2935;DHT22;2462;51.456;7.248;2022-10-16T03:29:06;14.30;99.90
2935;DHT22;2462;51.456;7.248;2022-10-16T03:31:32;14.40;99.90
2935;DHT22;2462;51.456;7.248;2022-10-16T03:33:57;14.40;99.90
2935;DHT22;2462;51.456;7.248;2022-10-16T03:36:23;14.40;99.90
2935;DHT22;2462;51.456;7.248;2022-10-16T03:38:48;14.40;99.90
2935;DHT22;2462;51.456;7.248;2022-10-16T03:41:14;14.40;99.90
2935;DHT22;2462;51.456;7.248;2022-10-16T03:43:40;14.40;99.90
2935;DHT22;2462;51.456;7.248;2022-10-16T03:46:06;17.00;99.90
2935;DHT22;2462;51.456;7.248;2022-10-16T03:48:31;14.40;99.90
2935;DHT22;2462;51.456;7.248;2022-10-16T03:50:57;14.30;99.90
2935;DHT22;2462;51.456;7.248;2022-10-16T03:53:23;14.30;99.90
2935;DHT22;2462;51.456;7.248;2022-10-16T03:55:48;14.30;99.90
2935;DHT22;2462;51.456;7.248;2022-10-16T03:58:14;14.30;99.90
2935;DHT22;2462;51.456;7.248;2022-10-16T04:00:44;14.30;99.90
2935;DHT22;2462;51.456;7.248;2022-10-16T04:03:10;14.30;99.90
2935;DHT22;2462;51.456;7.248;2022-10-16T04:05:35;14.30;99.90
2935;DHT22;2462;51.456;7.248;2022-10-16T04:08:01;14.30;99.90
2935;DHT22;2462;51.456;7.248;2022-10-16T04:10:27;14.30;99.90
2935;DHT22;2462;51.456;7.248;2022-10-16T04:12:52;14.30;99.90
2935;DHT22;2462;51.456;7.248;2022-10-16T04:15:22;16.40;99.90
2935;DHT22;2462;51.456;7.248;2022-10-16T04:20:16;14.30;99.90
2935;DHT22;2462;51.456;7.248;2022-10-16T04:22:41;14.20;99.90
2935;DHT22;2462;51.456;7.248;2022-10-16T04:25:07;14.20;99.90
2935;DHT22;2462;51.456;7.248;2022-10-16T04:27:33;14.20;99.90
2935;DHT22;2462;51.456;7.248;2022-10-16T04:29:59;14.20;99.90
2935;DHT22;2462;51.456;7.248;2022-10-16T04:32:25;14.20;99.90
2935;DHT22;2462;51.456;7.248;2022-10-16T04:34:51;14.20;99.90
2935;DHT22;2462;51.456;7.248;2022-10-16T04:37:16;14.20;99.90
2935;DHT22;2462;51.456;7.248;2022-10-16T04:39:42;14.20;99.90
2935;DHT22;2462;51.456;7.248;2022-10-16T04:42:08;14.20;99.90
2935;DHT22;2462;51.456;7.248;2022-10-16T04:44:33;14.20;99.90
2935;DHT22;2462;51.456;7.248;2022-10-16T04:46:59;14.20;99.90
2935;DHT22;2462;51.456;7.248;2022-10-16T04:49:24;14.20;99.90
2935;DHT22;2462;51.456;7.248;2022-10-16T04:51:50;14.20;99.90
2935;DHT22;2462;51.456;7.248;2022-10-16T04:54:15;14.70;99.90
2935;DHT22;2462;51.456;7.248;2022-10-16T04:56:41;14.20;99.90
2935;DHT22;2462;51.456;7.248;2022-10-16T04:59:15;14.10;99.90
2935;DHT22;2462;51.456;7.248;2022-10-16T05:01:40;14.10;99.90
2935;DHT22;2462;51.456;7.248;2022-10-16T05:04:06;14.10;99.90
2935;DHT22;2462;51.456;7.248;2022-10-16T05:06:32;14.10;99.90
2935;DHT22;2462;51.456;7.248;2022-10-16T05:12:20;14.10;99.90
2935;DHT22;2462;51.456;7.248;2022-10-16T05:14:45;14.10;99.90
2935;DHT22;2462;51.456;7.248;2022-10-16T05:17:11;14.10;99.90
2935;DHT22;2462;51.456;7.248;2022-10-16T05:19:36;14.10;99.90
2935;DHT22;2462;51.456;7.248;2022-10-16T05:22:02;15.70;99.90
2935;DHT22;2462;51.456;7.248;2022-10-16T05:24:27;14.10;99.90
2935;DHT22;2462;51.456;7.248;2022-10-16T05:26:53;15.60;99.90
2935;DHT22;2462;51.456;7.248;2022-10-16T05:29:19;14.10;99.90
2935;DHT22;2462;51.456;7.248;2022-10-16T05:31:45;14.10;99.90
2935;DHT22;2462;51.456;7.248;2022-10-16T05:34:10;14.10;99.90
2935;DHT22;2462;51.456;7.248;2022-10-16T05:36:36;14.00;99.90
2935;DHT22;2462;51.456;7.248;2022-10-16T05:39:02;14.10;99.90
2935;DHT22;2462;51.456;7.248;2022-10-16T05:41:28;14.10;99.90
2935;DHT22;2462;51.456;7.248;2022-10-16T05:43:53;14.10;99.90
2935;DHT22;2462;51.456;7.248;2022-10-16T05:46:19;14.10;99.90
2935;DHT22;2462;51.456;7.248;2022-10-16T05:48:45;14.10;99.90
2935;DHT22;2462;51.456;7.248;2022-10-16T05:51:12;14.10;99.90
2935;DHT22;2462;51.456;7.248;2022-10-16T05:53:39;14.10;99.90
2935;DHT22;2462;51.456;7.248;2022-10-16T05:56:06;14.10;99.90
2935;DHT22;2462;51.456;7.248;2022-10-16T05:58:34;14.10;99.90
2935;DHT22;2462;51.456;7.248;2022-10-16T06:01:06;14.10;99.90
2935;DHT22;2462;51.456;7.248;2022-10-16T06:03:33;14.00;99.90
2935;DHT22;2462;51.456;7.248;2022-10-16T06:05:59;14.00;99.90
2935;DHT22;2462;51.456;7.248;2022-10-16T06:08:24;14.10;99.90
2935;DHT22;2462;51.456;7.248;2022-10-16T06:11:01;14.10;99.90
2935;DHT22;2462;51.456;7.248;2022-10-16T06:13:27;14.10;99.90
2935;DHT22;2462;51.456;7.248;2022-10-16T06:15:52;14.90;99.90
2935;DHT22;2462;51.456;7.248;2022-10-16T06:18:18;14.10;99.90
2935;DHT22;2462;51.456;7.248;2022-10-16T06:20:43;14.10;99.90
2935;DHT22;2462;51.456;7.248;2022-10-16T06:23:09;14.00;99.90
2935;DHT22;2462;51.456;7.248;2022-10-16T06:25:34;14.10;99.90
2935;DHT22;2462;51.456;7.248;2022-10-16T06:28:00;14.00;99.90
2935;DHT22;2462;51.456;7.248;2022-10-16T06:30:25;14.10;99.90
2935;DHT22;2462;51.456;7.248;2022-10-16T06:32:51;14.10;99.90
2935;DHT22;2462;51.456;7.248;2022-10-16T06:35:17;14.10;99.90
2935;DHT22;2462;51.456;7.248;2022-10-16T06:37:42;14.10;99.90
2935;DHT22;2462;51.456;7.248;2022-10-16T06:40:08;14.10;99.90
2935;DHT22;2462;51.456;7.248;2022-10-16T06:42:33;14.10;99.90
2935;DHT22;2462;51.456;7.248;2022-10-16T06:44:59;14.10;99.90
2935;DHT22;2462;51.456;7.248;2022-10-16T06:47:24;14.10;99.90
2935;DHT22;2462;51.456;7.248;2022-10-16T06:49:50;14.10;99.90
2935;DHT22;2462;51.456;7.248;2022-10-16T06:52:15;14.10;99.90
2935;DHT22;2462;51.456;7.248;2022-10-16T06:54:41;14.10;99.90
2935;DHT22;2462;51.456;7.248;2022-10-16T06:57:06;14.10;99.90
2935;DHT22;2462;51.456;7.248;2022-10-16T06:59:32;14.10;99.90
2935;DHT22;2462;51.456;7.248;2022-10-16T07:01:58;14.10;99.90
2935;DHT22;2462;51.456;7.248;2022-10-16T07:04:23;14.10;99.90
2935;DHT22;2462;51.456;7.248;2022-10-16T07:06:49;14.10;99.90
2935;DHT22;2462;51.456;7.248;2022-10-16T07:09:14;14.20;99.90
2935;DHT22;2462;51.456;7.248;2022-10-16T07:11:40;14.20;99.90
2935;DHT22;2462;51.456;7.248;2022-10-16T07:14:17;14.20;99.90
2935;DHT22;2462;51.456;7.248;2022-10-16T07:16:42;14.20;99.90
2935;DHT22;2462;51.456;7.248;2022-10-16T07:19:08;14.20;99.90
2935;DHT22;2462;51.456;7.248;2022-10-16T07:21:34;14.20;99.90
2935;DHT22;2462;51.456;7.248;2022-10-16T07:24:00;14.20;99.90
2935;DHT22;2462;51.456;7.248;2022-10-16T07:26:28;14.20;99.90
2935;DHT22;2462;51.456;7.248;2022-10-16T07:28:55;14.10;99.90
2935;DHT22;2462;51.456;7.248;2022-10-16T07:31:22;14.20;99.90
2935;DHT22;2462;51.456;7.248;2022-10-16T07:33:48;14.20;99.90
2935;DHT22;2462;51.456;7.248;2022-10-16T07:36:19;14.20;99.90
2935;DHT22;2462;51.456;7.248;2022-10-16T07:38:45;14.20;99.90
2935;DHT22;2462;51.456;7.248;2022-10-16T07:41:16;14.20;99.90
2935;DHT22;2462;51.456;7.248;2022-10-16T07:43:49;14.20;99.90
2935;DHT22;2462;51.456;7.248;2022-10-16T07:46:16;14.20;99.90
2935;DHT22;2462;51.456;7.248;2022-10-16T07:48:42;14.20;99.90
2935;DHT22;2462;51.456;7.248;2022-10-16T07:51:11;14.20;99.90
2935;DHT22;2462;51.456;7.248;2022-10-16T07:53:37;14.20;99.90
2935;DHT22;2462;51.456;7.248;2022-10-16T07:56:07;14.20;99.90
2935;DHT22;2462;51.456;7.248;2022-10-16T07:58:34;14.20;99.90
2935;DHT22;2462;51.456;7.248;2022-10-16T08:01:07;14.30;99.90
2935;DHT22;2462;51.456;7.248;2022-10-16T08:03:33;14.30;99.90
2935;DHT22;2462;51.456;7.248;2022-10-16T08:05:59;14.20;99.90
2935;DHT22;2462;51.456;7.248;2022-10-16T08:08:26;14.30;99.90
2935;DHT22;2462;51.456;7.248;2022-10-16T08:10:52;14.30;99.90
2935;DHT22;2462;51.456;7.248;2022-10-16T08:13:17;14.30;99.90
2935;DHT22;2462;51.456;7.248;2022-10-16T08:15:43;14.40;99.90
2935;DHT22;2462;51.456;7.248;2022-10-16T08:18:11;14.40;99.90
2935;DHT22;2462;51.456;7.248;2022-10-16T08:20:37;14.40;99.90
2935;DHT22;2462;51.456;7.248;2022-10-16T08:23:02;14.40;99.90
2935;DHT22;2462;51.456;7.248;2022-10-16T08:25:28;14.50;99.90
2935;DHT22;2462;51.456;7.248;2022-10-16T08:27:54;14.50;99.90
2935;DHT22;2462;51.456;7.248;2022-10-16T08:30:22;14.50;99.90
2935;DHT22;2462;51.456;7.248;2022-10-16T08:32:48;14.50;99.90
2935;DHT22;2462;51.456;7.248;2022-10-16T08:35:14;14.50;99.90
2935;DHT22;2462;51.456;7.248;2022-10-16T08:37:40;14.50;99.90
2935;DHT22;2462;51.456;7.248;2022-10-16T08:40:15;14.60;99.90
2935;DHT22;2462;51.456;7.248;2022-10-16T08:48:45;14.60;99.90
2935;DHT22;2462;51.456;7.248;2022-10-16T08:51:29;14.70;99.90
2935;DHT22;2462;51.456;7.248;2022-10-16T08:53:59;14.70;99.90
2935;DHT22;2462;51.456;7.248;2022-10-16T08:56:26;14.70;99.90
2935;DHT22;2462;51.456;7.248;2022-10-16T08:58:54;14.70;99.90
2935;DHT22;2462;51.456;7.248;2022-10-16T09:01:22;14.70;99.90
2935;DHT22;2462;51.456;7.248;2022-10-16T09:04:02;14.70;99.90
2935;DHT22;2462;51.456;7.248;2022-10-16T09:06:48;14.50;99.90
2935;DHT22;2462;51.456;7.248;2022-10-16T09:20:18;14.80;99.90
2935;DHT22;2462;51.456;7.248;2022-10-16T09:22:45;14.90;99.90
2935;DHT22;2462;51.456;7.248;2022-10-16T09:25:20;14.90;99.90
2935;DHT22;2462;51.456;7.248;2022-10-16T09:27:55;14.90;99.90
2935;DHT22;2462;51.456;7.248;2022-10-16T09:30:22;15.00;99.90
2935;DHT22;2462;51.456;7.248;2022-10-16T09:32:51;15.00;99.90
2935;DHT22;2462;51.456;7.248;2022-10-16T09:35:21;15.00;99.90
2935;DHT22;2462;51.456;7.248;2022-10-16T09:37:50;14.90;99.90
2935;DHT22;2462;51.456;7.248;2022-10-16T09:40:30;15.00;99.90
2935;DHT22;2462;51.456;7.248;2022-10-16T09:47:00;15.00;99.90
2935;DHT22;2462;51.456;7.248;2022-10-16T09:48:50;15.00;99.90
2935;DHT22;2462;51.456;7.248;2022-10-16T09:56:31;15.10;99.90
2935;DHT22;2462;51.456;7.248;2022-10-16T09:59:01;15.10;99.90
2935;DHT22;2462;51.456;7.248;2022-10-16T10:01:36;15.10;99.90
2935;DHT22;2462;51.456;7.248;2022-10-16T10:04:06;15.10;99.90
2935;DHT22;2462;51.456;7.248;2022-10-16T10:06:43;15.10;99.90
2935;DHT22;2462;51.456;7.248;2022-10-16T10:11:51;15.20;99.90
2935;DHT22;2462;51.456;7.248;2022-10-16T10:17:09;15.20;99.90
2935;DHT22;2462;51.456;7.248;2022-10-16T10:19:46;15.20;99.90
2935;DHT22;2462;51.456;7.248;2022-10-16T10:22:32;15.70;99.90
2935;DHT22;2462;51.456;7.248;2022-10-16T10:30:34;15.40;99.90
2935;DHT22;2462;51.456;7.248;2022-10-16T10:33:25;15.40;99.90
2935;DHT22;2462;51.456;7.248;2022-10-16T10:49:13;15.60;99.90
2935;DHT22;2462;51.456;7.248;2022-10-16T10:51:58;15.60;99.90
2935;DHT22;2462;51.456;7.248;2022-10-16T10:54:34;15.60;99.90
2935;DHT22;2462;51.456;7.248;2022-10-16T10:57:24;15.60;99.90
2935;DHT22;2462;51.456;7.248;2022-10-16T11:08:32;15.70;99.90
2935;DHT22;2462;51.456;7.248;2022-10-16T11:11:04;15.70;99.90
2935;DHT22;2462;51.456;7.248;2022-10-16T11:14:00;15.70;99.90
2935;DHT22;2462;51.456;7.248;2022-10-16T11:22:22;15.80;99.90
2935;DHT22;2462;51.456;7.248;2022-10-16T11:25:40;15.90;99.90
2935;DHT22;2462;51.456;7.248;2022-10-16T11:28:16;15.90;99.90
2935;DHT22;2462;51.456;7.248;2022-10-16T11:35:44;15.90;99.90
2935;DHT22;2462;51.456;7.248;2022-10-16T11:38:23;15.90;99.90
2935;DHT22;2462;51.456;7.248;2022-10-16T11:40:54;15.90;99.90
2935;DHT22;2462;51.456;7.248;2022-10-16T11:43:34;15.90;99.90
2935;DHT22;2462;51.456;7.248;2022-10-16T11:46:08;15.90;99.90
2935;DHT22;2462;51.456;7.248;2022-10-16T11:48:43;15.90;99.90
2935;DHT22;2462;51.456;7.248;2022-10-16T11:51:29;15.70;99.90
2935;DHT22;2462;51.456;7.248;2022-10-16T11:56:50;15.90;99.90
2935;DHT22;2462;51.456;7.248;2022-10-16T11:59:32;16.00;99.90
2935;DHT22;2462;51.456;7.248;2022-10-16T12:02:29;16.00;99.90
2935;DHT22;2462;51.456;7.248;2022-10-16T12:07:36;16.10;99.90
2935;DHT22;2462;51.456;7.248;2022-10-16T12:10:24;15.50;99.90
2935;DHT22;2462;51.456;7.248;2022-10-16T12:12:50;16.20;99.90
2935;DHT22;2462;51.456;7.248;2022-10-16T12:15:20;16.20;99.90
2935;DHT22;2462;51.456;7.248;2022-10-16T12:17:46;16.30;99.90
2935;DHT22;2462;51.456;7.248;2022-10-16T12:22:47;16.30;99.90
2935;DHT22;2462;51.456;7.248;2022-10-16T12:25:25;16.30;99.90
2935;DHT22;2462;51.456;7.248;2022-10-16T12:28:17;16.30;99.90
2935;DHT22;2462;51.456;7.248;2022-10-16T12:30:52;16.30;99.90
2935;DHT22;2462;51.456;7.248;2022-10-16T12:36:39;16.20;99.90
2935;DHT22;2462;51.456;7.248;2022-10-16T12:39:05;16.30;99.90
2935;DHT22;2462;51.456;7.248;2022-10-16T12:41:32;16.30;99.90
2935;DHT22;2462;51.456;7.248;2022-10-16T12:44:00;16.30;99.90
2935;DHT22;2462;51.456;7.248;2022-10-16T12:51:39;16.40;99.90
2935;DHT22;2462;51.456;7.248;2022-10-16T12:57:04;16.30;99.90
2935;DHT22;2462;51.456;7.248;2022-10-16T12:59:33;16.40;99.90
2935;DHT22;2462;51.456;7.248;2022-10-16T13:05:00;16.50;99.90
2935;DHT22;2462;51.456;7.248;2022-10-16T13:10:23;16.30;99.90
2935;DHT22;2462;51.456;7.248;2022-10-16T13:15:56;16.30;99.90
2935;DHT22;2462;51.456;7.248;2022-10-16T13:29:22;16.40;99.90
2935;DHT22;2462;51.456;7.248;2022-10-16T13:31:48;16.30;99.90
2935;DHT22;2462;51.456;7.248;2022-10-16T13:34:23;16.30;99.90
2935;DHT22;2462;51.456;7.248;2022-10-16T13:36:50;16.00;99.90
2935;DHT22;2462;51.456;7.248;2022-10-16T13:39:30;16.30;99.90
2935;DHT22;2462;51.456;7.248;2022-10-16T13:42:11;16.20;99.90
2935;DHT22;2462;51.456;7.248;2022-10-16T13:44:44;16.20;99.90
2935;DHT22;2462;51.456;7.248;2022-10-16T13:47:19;16.20;99.90
2935;DHT22;2462;51.456;7.248;2022-10-16T13:49:45;16.20;99.90
2935;DHT22;2462;51.456;7.248;2022-10-16T13:52:18;16.30;99.90
2935;DHT22;2462;51.456;7.248;2022-10-16T13:54:44;16.30;99.90
2935;DHT22;2462;51.456;7.248;2022-10-16T13:57:15;16.30;99.90
2935;DHT22;2462;51.456;7.248;2022-10-16T13:59:40;16.30;99.90
2935;DHT22;2462;51.456;7.248;2022-10-16T14:02:35;16.30;99.90
2935;DHT22;2462;51.456;7.248;2022-10-16T14:05:03;16.30;99.90
2935;DHT22;2462;51.456;7.248;2022-10-16T14:07:31;16.30;99.90
2935;DHT22;2462;51.456;7.248;2022-10-16T14:10:05;16.30;99.90
2935;DHT22;2462;51.456;7.248;2022-10-16T14:12:32;16.30;99.90
2935;DHT22;2462;51.456;7.248;2022-10-16T14:14:59;16.30;99.90
2935;DHT22;2462;51.456;7.248;2022-10-16T14:17:28;16.30;99.90
2935;DHT22;2462;51.456;7.248;2022-10-16T14:19:57;16.30;99.90
2935;DHT22;2462;51.456;7.248;2022-10-16T14:22:36;16.40;99.90
2935;DHT22;2462;51.456;7.248;2022-10-16T14:25:26;16.30;99.90
2935;DHT22;2462;51.456;7.248;2022-10-16T14:28:00;16.40;99.90
2935;DHT22;2462;51.456;7.248;2022-10-16T14:30:27;16.40;99.90
2935;DHT22;2462;51.456;7.248;2022-10-16T14:32:55;16.30;99.90
2935;DHT22;2462;51.456;7.248;2022-10-16T14:35:38;16.30;99.90
2935;DHT22;2462;51.456;7.248;2022-10-16T14:38:06;16.40;99.90
2935;DHT22;2462;51.456;7.248;2022-10-16T14:40:35;16.30;99.90
2935;DHT22;2462;51.456;7.248;2022-10-16T14:43:02;16.30;99.90
2935;DHT22;2462;51.456;7.248;2022-10-16T14:45:30;16.30;99.90
2935;DHT22;2462;51.456;7.248;2022-10-16T14:48:16;16.30;99.90
2935;DHT22;2462;51.456;7.248;2022-10-16T14:50:42;15.60;99.90
2935;DHT22;2462;51.456;7.248;2022-10-16T14:53:11;16.30;99.90
2935;DHT22;2462;51.456;7.248;2022-10-16T14:55:38;16.30;99.90
2935;DHT22;2462;51.456;7.248;2022-10-16T14:58:04;16.30;99.90
2935;DHT22;2462;51.456;7.248;2022-10-16T15:00:29;16.30;99.90
2935;DHT22;2462;51.456;7.248;2022-10-16T15:02:55;16.30;99.90
2935;DHT22;2462;51.456;7.248;2022-10-16T15:05:26;16.30;99.90
2935;DHT22;2462;51.456;7.248;2022-10-16T15:07:53;16.30;99.90
2935;DHT22;2462;51.456;7.248;2022-10-16T15:10:24;16.30;99.90
2935;DHT22;2462;51.456;7.248;2022-10-16T15:12:51;16.30;99.90
2935;DHT22;2462;51.456;7.248;2022-10-16T15:17:49;16.30;99.90
2935;DHT22;2462;51.456;7.248;2022-10-16T15:20:17;17.00;99.90
2935;DHT22;2462;51.456;7.248;2022-10-16T15:22:43;16.20;99.90
2935;DHT22;2462;51.456;7.248;2022-10-16T15:25:29;16.30;99.90
2935;DHT22;2462;51.456;7.248;2022-10-16T15:27:55;16.20;99.90
2935;DHT22;2462;51.456;7.248;2022-10-16T15:30:21;16.20;99.90
2935;DHT22;2462;51.456;7.248;2022-10-16T15:32:46;16.20;99.90
2935;DHT22;2462;51.456;7.248;2022-10-16T15:35:12;16.20;99.90
2935;DHT22;2462;51.456;7.248;2022-10-16T15:37:37;16.20;99.90
2935;DHT22;2462;51.456;7.248;2022-10-16T15:40:03;16.20;99.90
2935;DHT22;2462;51.456;7.248;2022-10-16T15:42:29;16.20;99.90
2935;DHT22;2462;51.456;7.248;2022-10-16T15:44:54;16.60;99.90
2935;DHT22;2462;51.456;7.248;2022-10-16T15:47:20;16.10;99.90
2935;DHT22;2462;51.456;7.248;2022-10-16T15:49:45;16.10;99.90
2935;DHT22;2462;51.456;7.248;2022-10-16T15:52:11;16.10;99.90
2935;DHT22;2462;51.456;7.248;2022-10-16T15:54:37;16.10;99.90
2935;DHT22;2462;51.456;7.248;2022-10-16T15:57:02;16.10;99.90
2935;DHT22;2462;51.456;7.248;2022-10-16T15:59:28;16.10;99.90
2935;DHT22;2462;51.456;7.248;2022-10-16T16:01:53;16.10;99.90
2935;DHT22;2462;51.456;7.248;2022-10-16T16:04:19;16.10;99.90
2935;DHT22;2462;51.456;7.248;2022-10-16T16:06:44;16.10;99.90
2935;DHT22;2462;51.456;7.248;2022-10-16T16:09:12;16.10;99.90
2935;DHT22;2462;51.456;7.248;2022-10-16T16:11:38;15.40;99.90
2935;DHT22;2462;51.456;7.248;2022-10-16T16:14:05;16.10;99.90
2935;DHT22;2462;51.456;7.248;2022-10-16T16:16:31;15.20;99.90
2935;DHT22;2462;51.456;7.248;2022-10-16T16:21:30;16.10;99.90
2935;DHT22;2462;51.456;7.248;2022-10-16T16:23:55;16.00;99.90
2935;DHT22;2462;51.456;7.248;2022-10-16T16:26:24;16.00;99.90
2935;DHT22;2462;51.456;7.248;2022-10-16T16:28:52;16.00;99.90
2935;DHT22;2462;51.456;7.248;2022-10-16T16:31:18;16.00;99.90
2935;DHT22;2462;51.456;7.248;2022-10-16T16:33:43;16.00;99.90
2935;DHT22;2462;51.456;7.248;2022-10-16T16:36:09;15.80;99.90
2935;DHT22;2462;51.456;7.248;2022-10-16T16:38:34;16.00;99.90
2935;DHT22;2462;51.456;7.248;2022-10-16T16:41:11;16.90;99.90
2935;DHT22;2462;51.456;7.248;2022-10-16T16:43:36;16.00;99.90
2935;DHT22;2462;51.456;7.248;2022-10-16T16:46:02;16.00;99.90
2935;DHT22;2462;51.456;7.248;2022-10-16T16:48:27;16.00;99.90
2935;DHT22;2462;51.456;7.248;2022-10-16T16:50:53;16.00;99.90
2935;DHT22;2462;51.456;7.248;2022-10-16T16:53:18;16.00;99.90
2935;DHT22;2462;51.456;7.248;2022-10-16T16:55:44;15.90;99.90
2935;DHT22;2462;51.456;7.248;2022-10-16T16:58:09;15.90;99.90
2935;DHT22;2462;51.456;7.248;2022-10-16T17:00:35;15.90;99.90
2935;DHT22;2462;51.456;7.248;2022-10-16T17:03:01;15.90;99.90
2935;DHT22;2462;51.456;7.248;2022-10-16T17:05:26;15.90;99.90
2935;DHT22;2462;51.456;7.248;2022-10-16T17:07:52;16.00;99.90
2935;DHT22;2462;51.456;7.248;2022-10-16T17:10:17;15.90;99.90
2935;DHT22;2462;51.456;7.248;2022-10-16T17:12:43;16.00;99.90
2935;DHT22;2462;51.456;7.248;2022-10-16T17:15:08;15.90;99.90
2935;DHT22;2462;51.456;7.248;2022-10-16T17:17:34;15.90;99.90
2935;DHT22;2462;51.456;7.248;2022-10-16T17:20:00;15.90;99.90
2935;DHT22;2462;51.456;7.248;2022-10-16T17:22:25;15.80;99.90
2935;DHT22;2462;51.456;7.248;2022-10-16T17:24:51;15.80;99.90
2935;DHT22;2462;51.456;7.248;2022-10-16T17:27:18;17.10;99.90
2935;DHT22;2462;51.456;7.248;2022-10-16T17:29:44;15.80;99.90
2935;DHT22;2462;51.456;7.248;2022-10-16T17:32:09;15.80;99.90
2935;DHT22;2462;51.456;7.248;2022-10-16T17:34:36;15.80;99.90
2935;DHT22;2462;51.456;7.248;2022-10-16T17:37:02;15.80;99.90
2935;DHT22;2462;51.456;7.248;2022-10-16T17:39:27;15.80;99.90
2935;DHT22;2462;51.456;7.248;2022-10-16T17:41:53;15.80;99.90
2935;DHT22;2462;51.456;7.248;2022-10-16T17:44:20;15.70;99.90
2935;DHT22;2462;51.456;7.248;2022-10-16T17:46:50;15.80;99.90
2935;DHT22;2462;51.456;7.248;2022-10-16T17:49:16;15.80;99.90
2935;DHT22;2462;51.456;7.248;2022-10-16T17:51:42;15.00;99.90
2935;DHT22;2462;51.456;7.248;2022-10-16T17:54:08;16.30;99.90
2935;DHT22;2462;51.456;7.248;2022-10-16T17:56:34;15.70;99.90
2935;DHT22;2462;51.456;7.248;2022-10-16T17:59:00;17.00;99.90
2935;DHT22;2462;51.456;7.248;2022-10-16T18:01:35;15.70;99.90
2935;DHT22;2462;51.456;7.248;2022-10-16T18:04:06;15.70;99.90
2935;DHT22;2462;51.456;7.248;2022-10-16T18:06:34;15.70;99.90
2935;DHT22;2462;51.456;7.248;2022-10-16T18:09:00;15.70;99.90
2935;DHT22;2462;51.456;7.248;2022-10-16T18:11:26;15.70;99.90
2935;DHT22;2462;51.456;7.248;2022-10-16T18:13:54;15.70;99.90
2935;DHT22;2462;51.456;7.248;2022-10-16T18:16:20;15.70;99.90
2935;DHT22;2462;51.456;7.248;2022-10-16T18:18:46;15.70;99.90
2935;DHT22;2462;51.456;7.248;2022-10-16T18:21:14;16.40;99.90